AirNav   Airventure
 
 1491 users online  

8G8 Koons Airport
Salem, Ohio, USA

GOING TO SALEM?


FAA INFORMATION EFFECTIVE 20 JULY 2017

Location

FAA Identifier: 8G8
Lat/Long: 40-53-00.2120N / 080-52-59.3050W
40-53.003533N / 080-52.988417W
40.8833922 / -80.8831403
(estimated)
Elevation: 1327 ft. / 404 m (estimated)
Variation: 07W (1985)
From city: 2 miles SW of SALEM, OH
Time zone: UTC -4 (UTC -5 during Standard Time)
Zip code: 44460

Airport Operations

Airport use: Open to the public
Control tower: no
ARTCC: CLEVELAND CENTER
FSS: CLEVELAND FLIGHT SERVICE STATION
NOTAMs facility: CLE (NOTAM-D service available)
Attendance: DAYLIGHT HOURS
Wind indicator: yes
Segmented circle: no

Airport Communications

CTAF: 122.9

Nearby radio navigation aids

VOR radial/distance  VOR name  Freq  Var
ACOr137/19.7AKRON VOR/DME114.4004W
BSVr075/26.4BRIGGS VOR/DME112.4004W
YNGr204/28.5YOUNGSTOWN VORTAC109.0005W
EWCr285/30.7ELLWOOD CITY VORTAC115.8008W
MMJr315/39.3MONTOUR VORTAC112.0008W

 
NDB name  Hdg/Dist  Freq  Var  ID
CASTLE257/22.827209WUCP ..- -.-. .--.
CADIZ016/39.223907WCFX -.-. ..-. -..-

Airport Services

Parking: tiedowns
Airframe service: NONE
Powerplant service: NONE

Runway Information

Runway 9/27

Dimensions: 1850 x 100 ft. / 564 x 30 m
Surface: turf, in good condition
RUNWAY 9  RUNWAY 27
Latitude: 40-53.008667N40-52.998167N
Longitude: 080-53.188833W080-52.787667W
Elevation: 1327.0 ft.1327.0 ft.
Gradient: 1.4%1.4%
Traffic pattern: leftright
Runway end identifier lights: nono
Obstructions: 27 ft. tree, 388 ft. from runway, 72 ft. left of centerline, 14:1 slope to clear76 ft. trees, 125 ft. left of centerline
RY 27 APPROACH RATIO 2:1 DUE TO 76 FT TREES 215 FT FM, 125 FT 'L'.

Airport Ownership and Management from official FAA records

Ownership: Privately-owned
Owner: DAVID & HARRY KOONS
1760 ST RTE 9
SALEM, OH 44460
Phone 330-337-7303
Manager: DAVID & HARRY KOONS
1760 ST RTE 9
SALEM, OH 44460
Phone 330-337-7303
ADDITIONAL PHONE NUMBER 330-337-1780.

Airport Operational Statistics

Aircraft based on the field: 8
Single engine airplanes: 7
Ultralights: 1
    
Aircraft operations: avg 49/week *
98% local general aviation
2% transient general aviation
<1% military
* for 12-month period ending 18 September 2014

Additional Remarks

FOR IFR CLEARANCE CTC CLEVELAND ARTCC (ZOB) 120.775/298.95 OR CALL ZOB 440-774-0223.

Instrument Procedures

There are no published instrument procedures at 8G8.

Some nearby airports with instrument procedures:

38D - Salem Airpark Inc (4 nm N)
3G6 - Tri-City Airport (5 nm W)
4G4 - Youngstown Elser Metro Airport (10 nm NE)
02G - Columbiana County Airport (17 nm SE)
KTSO - Carroll County-Tolson Airport (21 nm SW)
 
Loc | Ops | Rwys | IFR | FBO | Links
Com | Nav | Svcs | Stats | Notes

City of Findlay
 
Area around 8G8 (Koons Airport)
 
Road maps at: MapQuest Bing Google
 
Aerial photo
WARNING: Photo may not be current or correct
Aerial photo of 8G8 (Koons Airport)
Photo by Rick Hunt
Photo taken 22-Mar-2015
looking south.

Do you have a better or more recent aerial photo of Koons Airport that you would like to share? If so, please send us your photo.

 
Sectional chart

 
Airport distance calculator
Flying to Koons Airport? Find the distance to fly.

From to 8G8

Sunrise and sunset
Times for 27-Jul-2017
 Local
(UTC-4)
 Zulu
(UTC)
Morning civil twilight05:4509:45
Sunrise06:1610:16
Sunset20:4400:44
Evening civil twilight21:1501:15

Current date and time
Zulu (UTC)  27-Jul-2017 21:03:41
Local (UTC-4)  27-Jul-2017 17:03:41
 
METAR
KUCP 
23nm E 
272056Z AUTO 00000KT 9SM FEW055 29/18 A2990 RMK AO2 SLP131 T02940178 56016
KBVI 
23nm E 
272047Z 28003KT 10SM SCT038 28/18 A2991
KYNG 
24nm NE 
272051Z 28004KT 10SM FEW095 SCT240 29/17 A2990 RMK AO2 SLP116 T02890167 56016
KPOV 
26nm NW 
272056Z AUTO 00000KT 10SM SCT050 OVC110 28/16 A2990 RMK AO2 T02790160
KCAK 
26nm W 
272051Z 28005KT 10SM FEW055 BKN095 BKN250 29/19 A2990 RMK AO2 SLP113 T02940194 56018
KAKR 
28nm W 
272054Z AUTO 16003KT 10SM SCT046 BKN060 OVC090 29/19 A2988 RMK AO2 SLP111 T02890189 56019 TSNO
KPHD 
35nm SW 
272053Z AUTO VRB03KT 10SM FEW028 SCT037 SCT075 27/22 A2990 RMK AO2 SLP118 60000 T02720222 56015
KPIT 
36nm SE 
272051Z 24004KT 10SM FEW037 BKN130 BKN200 27/19 A2990 RMK AO2 SLP124 T02720194 58015
KBTP 
43nm E 
272055Z AUTO 29005KT 10SM FEW050 29/18 A2991 RMK AO1 57014
KHLG 
44nm S 
272053Z 25003KT 10SM FEW037 BKN080 OVC110 26/21 A2991 RMK AO2 RAB22E49 SLP124 P0000 60000 T02610206 56012
TAF
KBVI 
23nm E 
271720Z 2718/2818 26004KT P6SM BKN150 FM272000 26005KT P6SM VCSH BKN050 FM280000 VRB03KT P6SM BKN050 FM281200 VRB03KT P6SM VCSH BKN025
KYNG 
24nm NE 
271720Z 2718/2818 VRB03KT P6SM SCT045 BKN200 FM280100 02004KT P6SM BKN120 FM280900 06005KT 5SM BR BKN035 FM281400 07006KT P6SM VCSH BKN025 FM281700 04007KT P6SM OVC035
KCAK 
26nm W 
271931Z 2720/2818 23006KT P6SM VCSH SCT035 BKN120 FM272300 00000KT P6SM BKN060 FM280900 04005KT 5SM BR BKN025 FM281300 06007KT P6SM VCSH OVC025 FM281700 04007KT P6SM OVC035
NOTAMs
Click for the latest NOTAMs
NOTAMs are issued by the DoD/FAA and will open in a separate window not controlled by AirNav.

 

 
 

Would you like to see your business listed on this page?

 If your business provides an interesting product or service to pilots, flight crews, aircraft, or users of the Koons Airport, you should consider listing it here.  To start the listing process, click on the button below
 
Add a business
 

Other Pages about Koons Airport

Update a link
 
Copyright © AirNav, LLC. All rights reserved. Privacy Policy  Contact